sensor_id;sensor_type;location;lat;lon;timestamp;P1;durP1;ratioP1;P2;durP2;ratioP2
40252;SDS011;25972;51.854;4.534;2022-09-30T00:01:46;11.95;;;10.70;;
40252;SDS011;25972;51.854;4.534;2022-09-30T00:04:13;11.65;;;10.43;;
40252;SDS011;25972;51.854;4.534;2022-09-30T00:06:40;13.57;;;10.90;;
40252;SDS011;25972;51.854;4.534;2022-09-30T00:09:06;15.00;;;11.07;;
40252;SDS011;25972;51.854;4.534;2022-09-30T00:11:34;17.50;;;10.35;;
40252;SDS011;25972;51.854;4.534;2022-09-30T00:14:00;11.93;;;10.20;;
40252;SDS011;25972;51.854;4.534;2022-09-30T00:16:27;12.15;;;10.95;;
40252;SDS011;25972;51.854;4.534;2022-09-30T00:18:57;13.88;;;10.73;;
40252;SDS011;25972;51.854;4.534;2022-09-30T00:21:24;13.32;;;10.93;;
40252;SDS011;25972;51.854;4.534;2022-09-30T00:23:51;12.60;;;10.65;;
40252;SDS011;25972;51.854;4.534;2022-09-30T00:26:18;14.18;;;10.95;;
40252;SDS011;25972;51.854;4.534;2022-09-30T00:28:48;12.10;;;10.77;;
40252;SDS011;25972;51.854;4.534;2022-09-30T00:31:15;14.98;;;10.63;;
40252;SDS011;25972;51.854;4.534;2022-09-30T00:33:43;12.48;;;10.10;;
40252;SDS011;25972;51.854;4.534;2022-09-30T00:36:30;12.20;;;10.57;;
40252;SDS011;25972;51.854;4.534;2022-09-30T00:38:55;11.10;;;9.85;;
40252;SDS011;25972;51.854;4.534;2022-09-30T00:41:21;11.90;;;10.15;;
40252;SDS011;25972;51.854;4.534;2022-09-30T00:43:47;10.95;;;9.60;;
40252;SDS011;25972;51.854;4.534;2022-09-30T00:48:46;10.93;;;9.80;;
40252;SDS011;25972;51.854;4.534;2022-09-30T00:51:26;12.38;;;10.00;;
40252;SDS011;25972;51.854;4.534;2022-09-30T00:53:58;11.25;;;10.02;;
40252;SDS011;25972;51.854;4.534;2022-09-30T00:56:33;11.70;;;10.50;;
40252;SDS011;25972;51.854;4.534;2022-09-30T00:59:07;12.57;;;9.98;;
40252;SDS011;25972;51.854;4.534;2022-09-30T01:01:38;10.48;;;9.38;;
40252;SDS011;25972;51.854;4.534;2022-09-30T01:04:08;10.68;;;9.50;;
40252;SDS011;25972;51.854;4.534;2022-09-30T01:06:38;12.70;;;9.60;;
40252;SDS011;25972;51.854;4.534;2022-09-30T01:09:05;10.02;;;8.98;;
40252;SDS011;25972;51.854;4.534;2022-09-30T01:11:31;12.10;;;9.48;;
40252;SDS011;25972;51.854;4.534;2022-09-30T01:14:11;11.43;;;9.70;;
40252;SDS011;25972;51.854;4.534;2022-09-30T01:30:53;11.05;;;9.38;;
40252;SDS011;25972;51.854;4.534;2022-09-30T01:33:38;11.18;;;9.80;;
40252;SDS011;25972;51.854;4.534;2022-09-30T01:39:18;10.82;;;9.70;;
40252;SDS011;25972;51.854;4.534;2022-09-30T01:44:52;11.57;;;9.23;;
40252;SDS011;25972;51.854;4.534;2022-09-30T01:47:31;10.60;;;9.48;;
40252;SDS011;25972;51.854;4.534;2022-09-30T01:50:08;10.73;;;9.05;;
40252;SDS011;25972;51.854;4.534;2022-09-30T01:55:22;10.82;;;9.13;;
40252;SDS011;25972;51.854;4.534;2022-09-30T01:58:02;10.45;;;9.35;;
40252;SDS011;25972;51.854;4.534;2022-09-30T02:00:35;10.98;;;9.50;;
40252;SDS011;25972;51.854;4.534;2022-09-30T02:06:09;10.77;;;9.68;;
40252;SDS011;25972;51.854;4.534;2022-09-30T02:16:37;10.35;;;9.07;;
40252;SDS011;25972;51.854;4.534;2022-09-30T02:19:12;11.20;;;9.32;;
40252;SDS011;25972;51.854;4.534;2022-09-30T02:21:46;10.77;;;9.43;;
40252;SDS011;25972;51.854;4.534;2022-09-30T02:24:29;10.57;;;8.95;;
40252;SDS011;25972;51.854;4.534;2022-09-30T02:27:01;11.52;;;9.20;;
40252;SDS011;25972;51.854;4.534;2022-09-30T02:29:31;11.05;;;8.65;;
40252;SDS011;25972;51.854;4.534;2022-09-30T02:32:03;12.07;;;8.82;;
40252;SDS011;25972;51.854;4.534;2022-09-30T02:34:34;10.70;;;9.13;;
40252;SDS011;25972;51.854;4.534;2022-09-30T02:39:34;10.27;;;8.93;;
40252;SDS011;25972;51.854;4.534;2022-09-30T02:42:18;10.57;;;9.40;;
40252;SDS011;25972;51.854;4.534;2022-09-30T02:44:48;9.70;;;8.70;;
40252;SDS011;25972;51.854;4.534;2022-09-30T02:50:00;10.43;;;9.30;;
40252;SDS011;25972;51.854;4.534;2022-09-30T02:57:49;11.73;;;9.40;;
40252;SDS011;25972;51.854;4.534;2022-09-30T03:00:25;10.32;;;9.00;;
40252;SDS011;25972;51.854;4.534;2022-09-30T03:03:02;10.73;;;8.85;;
40252;SDS011;25972;51.854;4.534;2022-09-30T03:05:42;10.55;;;8.85;;
40252;SDS011;25972;51.854;4.534;2022-09-30T03:08:09;11.10;;;9.40;;
40252;SDS011;25972;51.854;4.534;2022-09-30T03:10:35;11.48;;;9.73;;
40252;SDS011;25972;51.854;4.534;2022-09-30T03:24:35;14.10;;;9.60;;
40252;SDS011;25972;51.854;4.534;2022-09-30T03:26:38;10.52;;;9.18;;
40252;SDS011;25972;51.854;4.534;2022-09-30T03:34:58;10.27;;;8.95;;
40252;SDS011;25972;51.854;4.534;2022-09-30T03:37:59;9.32;;;8.40;;
40252;SDS011;25972;51.854;4.534;2022-09-30T03:40:29;9.88;;;8.85;;
40252;SDS011;25972;51.854;4.534;2022-09-30T03:43:09;11.85;;;9.20;;
40252;SDS011;25972;51.854;4.534;2022-09-30T03:45:55;10.82;;;9.50;;
40252;SDS011;25972;51.854;4.534;2022-09-30T03:48:30;10.68;;;8.68;;
40252;SDS011;25972;51.854;4.534;2022-09-30T03:50:57;12.57;;;8.80;;
40252;SDS011;25972;51.854;4.534;2022-09-30T03:53:24;12.23;;;8.90;;
40252;SDS011;25972;51.854;4.534;2022-09-30T03:55:52;10.70;;;8.95;;
40252;SDS011;25972;51.854;4.534;2022-09-30T03:58:19;12.10;;;9.30;;
40252;SDS011;25972;51.854;4.534;2022-09-30T04:00:48;12.98;;;10.18;;
40252;SDS011;25972;51.854;4.534;2022-09-30T04:03:15;13.35;;;9.20;;
40252;SDS011;25972;51.854;4.534;2022-09-30T04:05:42;10.00;;;8.93;;
40252;SDS011;25972;51.854;4.534;2022-09-30T04:08:08;11.30;;;9.32;;
40252;SDS011;25972;51.854;4.534;2022-09-30T04:10:34;10.50;;;8.95;;
40252;SDS011;25972;51.854;4.534;2022-09-30T04:13:00;11.63;;;9.30;;
40252;SDS011;25972;51.854;4.534;2022-09-30T04:15:26;12.10;;;9.30;;
40252;SDS011;25972;51.854;4.534;2022-09-30T04:17:51;12.23;;;9.52;;
40252;SDS011;25972;51.854;4.534;2022-09-30T04:20:17;10.50;;;9.32;;
40252;SDS011;25972;51.854;4.534;2022-09-30T04:22:43;10.32;;;8.77;;
40252;SDS011;25972;51.854;4.534;2022-09-30T04:25:09;12.73;;;9.82;;
40252;SDS011;25972;51.854;4.534;2022-09-30T04:27:35;12.90;;;10.73;;
40252;SDS011;25972;51.854;4.534;2022-09-30T04:30:01;12.48;;;10.10;;
40252;SDS011;25972;51.854;4.534;2022-09-30T04:32:26;12.13;;;9.43;;
40252;SDS011;25972;51.854;4.534;2022-09-30T04:34:53;12.85;;;10.55;;
40252;SDS011;25972;51.854;4.534;2022-09-30T04:37:19;9.90;;;8.68;;
40252;SDS011;25972;51.854;4.534;2022-09-30T04:39:45;11.82;;;9.77;;
40252;SDS011;25972;51.854;4.534;2022-09-30T04:42:11;11.25;;;9.18;;
40252;SDS011;25972;51.854;4.534;2022-09-30T04:44:37;11.30;;;9.52;;
40252;SDS011;25972;51.854;4.534;2022-09-30T04:47:03;15.68;;;10.00;;
40252;SDS011;25972;51.854;4.534;2022-09-30T04:49:28;13.40;;;9.88;;
40252;SDS011;25972;51.854;4.534;2022-09-30T04:51:54;11.00;;;9.48;;
40252;SDS011;25972;51.854;4.534;2022-09-30T04:54:20;11.15;;;9.40;;
40252;SDS011;25972;51.854;4.534;2022-09-30T04:56:46;11.85;;;9.77;;
40252;SDS011;25972;51.854;4.534;2022-09-30T04:59:12;14.45;;;10.13;;
40252;SDS011;25972;51.854;4.534;2022-09-30T05:01:37;13.75;;;9.93;;
40252;SDS011;25972;51.854;4.534;2022-09-30T05:04:04;13.10;;;9.52;;
40252;SDS011;25972;51.854;4.534;2022-09-30T05:06:30;13.93;;;10.05;;
40252;SDS011;25972;51.854;4.534;2022-09-30T05:08:56;12.32;;;10.40;;
40252;SDS011;25972;51.854;4.534;2022-09-30T05:11:21;12.75;;;10.20;;
40252;SDS011;25972;51.854;4.534;2022-09-30T05:13:47;13.05;;;10.15;;
40252;SDS011;25972;51.854;4.534;2022-09-30T05:16:15;14.45;;;10.32;;
40252;SDS011;25972;51.854;4.534;2022-09-30T05:18:41;14.40;;;11.10;;
40252;SDS011;25972;51.854;4.534;2022-09-30T05:21:10;13.70;;;9.98;;
40252;SDS011;25972;51.854;4.534;2022-09-30T05:23:37;13.27;;;9.82;;
40252;SDS011;25972;51.854;4.534;2022-09-30T05:26:03;14.35;;;10.68;;
40252;SDS011;25972;51.854;4.534;2022-09-30T05:28:29;15.63;;;10.73;;
40252;SDS011;25972;51.854;4.534;2022-09-30T05:31:02;13.77;;;10.60;;
40252;SDS011;25972;51.854;4.534;2022-09-30T05:33:30;13.57;;;10.57;;
40252;SDS011;25972;51.854;4.534;2022-09-30T05:36:01;14.30;;;11.05;;
40252;SDS011;25972;51.854;4.534;2022-09-30T05:38:28;14.25;;;11.13;;
40252;SDS011;25972;51.854;4.534;2022-09-30T05:40:54;17.35;;;11.68;;
40252;SDS011;25972;51.854;4.534;2022-09-30T05:43:20;16.70;;;11.43;;
40252;SDS011;25972;51.854;4.534;2022-09-30T05:45:53;16.00;;;10.73;;
40252;SDS011;25972;51.854;4.534;2022-09-30T05:48:21;15.55;;;11.50;;
40252;SDS011;25972;51.854;4.534;2022-09-30T05:50:47;16.20;;;10.82;;
40252;SDS011;25972;51.854;4.534;2022-09-30T05:53:15;14.38;;;11.55;;
40252;SDS011;25972;51.854;4.534;2022-09-30T05:55:45;16.77;;;12.02;;
40252;SDS011;25972;51.854;4.534;2022-09-30T05:58:12;18.80;;;12.02;;
40252;SDS011;25972;51.854;4.534;2022-09-30T06:00:41;15.68;;;12.30;;
40252;SDS011;25972;51.854;4.534;2022-09-30T06:03:08;19.42;;;13.10;;
40252;SDS011;25972;51.854;4.534;2022-09-30T06:05:35;18.13;;;12.15;;
40252;SDS011;25972;51.854;4.534;2022-09-30T06:08:01;20.58;;;13.23;;
40252;SDS011;25972;51.854;4.534;2022-09-30T06:10:27;19.13;;;13.98;;
40252;SDS011;25972;51.854;4.534;2022-09-30T06:12:53;19.70;;;14.40;;
40252;SDS011;25972;51.854;4.534;2022-09-30T06:15:19;21.73;;;14.65;;
40252;SDS011;25972;51.854;4.534;2022-09-30T06:17:45;23.80;;;15.05;;
40252;SDS011;25972;51.854;4.534;2022-09-30T06:20:17;21.35;;;15.32;;
40252;SDS011;25972;51.854;4.534;2022-09-30T06:22:43;23.75;;;16.42;;
40252;SDS011;25972;51.854;4.534;2022-09-30T06:25:09;23.73;;;16.55;;
40252;SDS011;25972;51.854;4.534;2022-09-30T06:27:35;26.67;;;16.67;;
40252;SDS011;25972;51.854;4.534;2022-09-30T06:30:06;26.55;;;17.70;;
40252;SDS011;25972;51.854;4.534;2022-09-30T06:32:33;30.48;;;17.48;;
40252;SDS011;25972;51.854;4.534;2022-09-30T06:34:58;27.50;;;17.63;;
40252;SDS011;25972;51.854;4.534;2022-09-30T06:37:24;30.33;;;18.00;;
40252;SDS011;25972;51.854;4.534;2022-09-30T06:39:50;29.30;;;18.02;;
40252;SDS011;25972;51.854;4.534;2022-09-30T06:42:16;24.95;;;17.05;;
40252;SDS011;25972;51.854;4.534;2022-09-30T06:44:43;26.70;;;18.15;;
40252;SDS011;25972;51.854;4.534;2022-09-30T06:47:11;32.80;;;19.55;;
40252;SDS011;25972;51.854;4.534;2022-09-30T06:49:38;28.17;;;17.85;;
40252;SDS011;25972;51.854;4.534;2022-09-30T06:52:04;32.47;;;19.70;;
40252;SDS011;25972;51.854;4.534;2022-09-30T06:54:30;30.42;;;18.98;;
40252;SDS011;25972;51.854;4.534;2022-09-30T06:56:56;30.67;;;19.40;;
40252;SDS011;25972;51.854;4.534;2022-09-30T06:59:23;32.70;;;19.95;;
40252;SDS011;25972;51.854;4.534;2022-09-30T07:01:49;36.47;;;20.95;;
40252;SDS011;25972;51.854;4.534;2022-09-30T07:04:14;37.78;;;22.13;;
40252;SDS011;25972;51.854;4.534;2022-09-30T07:06:40;44.45;;;23.45;;
40252;SDS011;25972;51.854;4.534;2022-09-30T07:09:06;39.55;;;22.45;;
40252;SDS011;25972;51.854;4.534;2022-09-30T07:11:33;37.40;;;22.10;;
40252;SDS011;25972;51.854;4.534;2022-09-30T07:14:01;42.45;;;23.70;;
40252;SDS011;25972;51.854;4.534;2022-09-30T07:16:28;38.50;;;22.45;;
40252;SDS011;25972;51.854;4.534;2022-09-30T07:19:02;40.28;;;22.88;;
40252;SDS011;25972;51.854;4.534;2022-09-30T07:21:28;39.70;;;22.17;;
40252;SDS011;25972;51.854;4.534;2022-09-30T07:23:55;46.00;;;24.55;;
40252;SDS011;25972;51.854;4.534;2022-09-30T07:26:23;37.58;;;21.50;;
40252;SDS011;25972;51.854;4.534;2022-09-30T07:28:49;40.17;;;23.38;;
40252;SDS011;25972;51.854;4.534;2022-09-30T07:31:20;41.08;;;23.20;;
40252;SDS011;25972;51.854;4.534;2022-09-30T07:33:48;35.28;;;19.50;;
40252;SDS011;25972;51.854;4.534;2022-09-30T07:36:21;35.88;;;20.60;;
40252;SDS011;25972;51.854;4.534;2022-09-30T07:38:53;31.60;;;20.08;;
40252;SDS011;25972;51.854;4.534;2022-09-30T07:41:21;35.10;;;21.00;;
40252;SDS011;25972;51.854;4.534;2022-09-30T07:43:56;29.95;;;20.60;;
40252;SDS011;25972;51.854;4.534;2022-09-30T07:46:33;28.15;;;18.45;;
40252;SDS011;25972;51.854;4.534;2022-09-30T07:49:02;23.65;;;17.15;;
40252;SDS011;25972;51.854;4.534;2022-09-30T07:51:34;24.67;;;18.08;;
40252;SDS011;25972;51.854;4.534;2022-09-30T07:54:05;28.08;;;18.65;;
40252;SDS011;25972;51.854;4.534;2022-09-30T07:56:33;27.73;;;17.85;;
40252;SDS011;25972;51.854;4.534;2022-09-30T07:59:03;25.10;;;19.05;;
40252;SDS011;25972;51.854;4.534;2022-09-30T08:01:30;19.65;;;16.75;;
40252;SDS011;25972;51.854;4.534;2022-09-30T08:03:57;24.13;;;17.00;;
40252;SDS011;25972;51.854;4.534;2022-09-30T08:06:25;21.27;;;16.02;;
40252;SDS011;25972;51.854;4.534;2022-09-30T08:08:54;21.38;;;16.20;;
40252;SDS011;25972;51.854;4.534;2022-09-30T08:11:21;16.63;;;13.52;;
40252;SDS011;25972;51.854;4.534;2022-09-30T08:13:51;17.38;;;14.07;;
40252;SDS011;25972;51.854;4.534;2022-09-30T08:16:21;16.13;;;13.02;;
40252;SDS011;25972;51.854;4.534;2022-09-30T08:18:48;15.80;;;14.00;;
40252;SDS011;25972;51.854;4.534;2022-09-30T08:21:19;19.50;;;14.80;;
40252;SDS011;25972;51.854;4.534;2022-09-30T08:23:44;14.95;;;13.38;;
40252;SDS011;25972;51.854;4.534;2022-09-30T08:26:11;21.77;;;16.05;;
40252;SDS011;25972;51.854;4.534;2022-09-30T08:28:37;13.15;;;11.75;;
40252;SDS011;25972;51.854;4.534;2022-09-30T08:31:08;14.68;;;12.50;;
40252;SDS011;25972;51.854;4.534;2022-09-30T08:33:36;14.57;;;12.27;;
40252;SDS011;25972;51.854;4.534;2022-09-30T08:36:10;18.00;;;13.90;;
40252;SDS011;25972;51.854;4.534;2022-09-30T08:38:37;14.73;;;13.32;;
40252;SDS011;25972;51.854;4.534;2022-09-30T08:51:49;14.07;;;12.70;;
40252;SDS011;25972;51.854;4.534;2022-09-30T08:54:18;14.65;;;13.25;;
40252;SDS011;25972;51.854;4.534;2022-09-30T08:56:48;14.88;;;13.48;;
40252;SDS011;25972;51.854;4.534;2022-09-30T09:01:41;14.57;;;13.25;;
40252;SDS011;25972;51.854;4.534;2022-09-30T09:04:11;15.55;;;14.00;;
40252;SDS011;25972;51.854;4.534;2022-09-30T09:06:52;15.45;;;14.15;;
40252;SDS011;25972;51.854;4.534;2022-09-30T09:21:12;15.43;;;14.27;;
40252;SDS011;25972;51.854;4.534;2022-09-30T09:23:48;16.13;;;14.93;;
40252;SDS011;25972;51.854;4.534;2022-09-30T09:26:17;16.45;;;15.27;;
40252;SDS011;25972;51.854;4.534;2022-09-30T09:29:02;16.63;;;15.38;;
40252;SDS011;25972;51.854;4.534;2022-09-30T09:34:12;17.70;;;16.05;;
40252;SDS011;25972;51.854;4.534;2022-09-30T09:42:04;16.90;;;15.70;;
40252;SDS011;25972;51.854;4.534;2022-09-30T09:45:28;17.50;;;16.30;;
40252;SDS011;25972;51.854;4.534;2022-09-30T09:47:56;17.77;;;16.40;;
40252;SDS011;25972;51.854;4.534;2022-09-30T09:50:24;17.50;;;16.30;;
40252;SDS011;25972;51.854;4.534;2022-09-30T09:55:50;17.60;;;16.30;;
40252;SDS011;25972;51.854;4.534;2022-09-30T09:58:23;18.20;;;16.77;;
40252;SDS011;25972;51.854;4.534;2022-09-30T10:00:49;17.98;;;16.58;;
40252;SDS011;25972;51.854;4.534;2022-09-30T10:05:44;16.50;;;15.25;;
40252;SDS011;25972;51.854;4.534;2022-09-30T10:08:34;16.67;;;15.38;;
40252;SDS011;25972;51.854;4.534;2022-09-30T10:11:04;17.70;;;16.15;;
40252;SDS011;25972;51.854;4.534;2022-09-30T10:13:55;17.67;;;16.27;;
40252;SDS011;25972;51.854;4.534;2022-09-30T10:16:29;17.00;;;15.77;;
40252;SDS011;25972;51.854;4.534;2022-09-30T10:18:57;16.58;;;15.40;;
40252;SDS011;25972;51.854;4.534;2022-09-30T10:21:25;17.33;;;15.98;;
40252;SDS011;25972;51.854;4.534;2022-09-30T10:23:52;17.17;;;15.88;;
40252;SDS011;25972;51.854;4.534;2022-09-30T10:26:19;18.17;;;16.55;;
40252;SDS011;25972;51.854;4.534;2022-09-30T10:28:51;18.30;;;16.90;;
40252;SDS011;25972;51.854;4.534;2022-09-30T10:31:30;18.73;;;17.10;;
40252;SDS011;25972;51.854;4.534;2022-09-30T10:36:53;18.40;;;16.90;;
40252;SDS011;25972;51.854;4.534;2022-09-30T10:39:31;18.20;;;16.80;;
40252;SDS011;25972;51.854;4.534;2022-09-30T10:44:51;17.90;;;16.52;;
40252;SDS011;25972;51.854;4.534;2022-09-30T10:47:25;18.35;;;16.83;;
40252;SDS011;25972;51.854;4.534;2022-09-30T10:49:55;17.75;;;16.10;;
40252;SDS011;25972;51.854;4.534;2022-09-30T10:52:30;17.05;;;15.73;;
40252;SDS011;25972;51.854;4.534;2022-09-30T10:54:59;18.10;;;16.70;;
40252;SDS011;25972;51.854;4.534;2022-09-30T10:57:37;17.25;;;15.80;;
40252;SDS011;25972;51.854;4.534;2022-09-30T11:15:47;18.25;;;16.80;;
40252;SDS011;25972;51.854;4.534;2022-09-30T11:21:28;19.15;;;17.63;;
40252;SDS011;25972;51.854;4.534;2022-09-30T11:24:28;18.48;;;17.05;;
40252;SDS011;25972;51.854;4.534;2022-09-30T11:27:13;18.60;;;16.67;;
40252;SDS011;25972;51.854;4.534;2022-09-30T11:29:42;18.02;;;16.58;;
40252;SDS011;25972;51.854;4.534;2022-09-30T11:32:18;18.58;;;17.17;;
40252;SDS011;25972;51.854;4.534;2022-09-30T11:35:22;18.73;;;17.23;;
40252;SDS011;25972;51.854;4.534;2022-09-30T11:41:03;19.38;;;17.92;;
40252;SDS011;25972;51.854;4.534;2022-09-30T11:48:56;16.75;;;15.43;;
40252;SDS011;25972;51.854;4.534;2022-09-30T12:00:29;16.33;;;14.93;;
40252;SDS011;25972;51.854;4.534;2022-09-30T12:02:59;15.88;;;14.48;;
40252;SDS011;25972;51.854;4.534;2022-09-30T12:05:53;19.02;;;17.63;;
40252;SDS011;25972;51.854;4.534;2022-09-30T12:08:33;17.52;;;16.15;;
40252;SDS011;25972;51.854;4.534;2022-09-30T12:11:09;16.98;;;15.80;;
40252;SDS011;25972;51.854;4.534;2022-09-30T12:13:49;18.67;;;17.10;;
40252;SDS011;25972;51.854;4.534;2022-09-30T12:16:21;17.15;;;15.90;;
40252;SDS011;25972;51.854;4.534;2022-09-30T12:18:58;17.85;;;16.48;;
40252;SDS011;25972;51.854;4.534;2022-09-30T12:21:46;18.00;;;16.73;;
40252;SDS011;25972;51.854;4.534;2022-09-30T12:24:31;15.77;;;14.57;;
40252;SDS011;25972;51.854;4.534;2022-09-30T12:27:03;17.60;;;16.15;;
40252;SDS011;25972;51.854;4.534;2022-09-30T12:29:36;18.15;;;16.83;;
40252;SDS011;25972;51.854;4.534;2022-09-30T12:32:35;16.27;;;15.07;;
40252;SDS011;25972;51.854;4.534;2022-09-30T12:35:43;16.95;;;15.65;;
40252;SDS011;25972;51.854;4.534;2022-09-30T12:38:39;16.17;;;15.07;;
40252;SDS011;25972;51.854;4.534;2022-09-30T12:47:47;18.17;;;16.77;;
40252;SDS011;25972;51.854;4.534;2022-09-30T12:50:25;18.25;;;16.88;;
40252;SDS011;25972;51.854;4.534;2022-09-30T12:52:53;17.92;;;16.63;;
40252;SDS011;25972;51.854;4.534;2022-09-30T12:55:29;18.03;;;16.70;;
40252;SDS011;25972;51.854;4.534;2022-09-30T12:58:02;18.23;;;16.98;;
40252;SDS011;25972;51.854;4.534;2022-09-30T13:00:30;18.30;;;16.92;;
40252;SDS011;25972;51.854;4.534;2022-09-30T13:03:03;16.70;;;15.60;;
40252;SDS011;25972;51.854;4.534;2022-09-30T13:11:18;17.77;;;16.52;;
40252;SDS011;25972;51.854;4.534;2022-09-30T13:13:27;17.63;;;16.27;;
40252;SDS011;25972;51.854;4.534;2022-09-30T13:16:00;17.67;;;16.38;;
40252;SDS011;25972;51.854;4.534;2022-09-30T13:34:46;18.55;;;17.25;;
40252;SDS011;25972;51.854;4.534;2022-09-30T13:37:35;18.27;;;16.80;;
40252;SDS011;25972;51.854;4.534;2022-09-30T13:40:03;17.42;;;16.25;;
40252;SDS011;25972;51.854;4.534;2022-09-30T13:42:38;19.63;;;18.02;;
40252;SDS011;25972;51.854;4.534;2022-09-30T13:45:17;19.20;;;17.80;;
40252;SDS011;25972;51.854;4.534;2022-09-30T13:47:56;19.58;;;18.17;;
40252;SDS011;25972;51.854;4.534;2022-09-30T13:50:26;19.73;;;18.33;;
40252;SDS011;25972;51.854;4.534;2022-09-30T13:52:59;19.73;;;18.23;;
40252;SDS011;25972;51.854;4.534;2022-09-30T13:55:33;19.85;;;18.45;;
40252;SDS011;25972;51.854;4.534;2022-09-30T14:03:38;18.92;;;17.50;;
40252;SDS011;25972;51.854;4.534;2022-09-30T14:12:18;20.30;;;18.80;;
40252;SDS011;25972;51.854;4.534;2022-09-30T14:14:54;20.80;;;19.13;;
40252;SDS011;25972;51.854;4.534;2022-09-30T14:23:14;17.77;;;16.58;;
40252;SDS011;25972;51.854;4.534;2022-09-30T14:25:44;20.00;;;18.52;;
40252;SDS011;25972;51.854;4.534;2022-09-30T14:28:46;18.23;;;16.80;;
40252;SDS011;25972;51.854;4.534;2022-09-30T14:31:20;17.95;;;16.75;;
40252;SDS011;25972;51.854;4.534;2022-09-30T14:33:46;19.33;;;17.83;;
40252;SDS011;25972;51.854;4.534;2022-09-30T14:36:15;18.15;;;16.75;;
40252;SDS011;25972;51.854;4.534;2022-09-30T14:38:44;18.20;;;16.85;;
40252;SDS011;25972;51.854;4.534;2022-09-30T14:41:18;17.85;;;16.60;;
40252;SDS011;25972;51.854;4.534;2022-09-30T14:43:47;18.60;;;17.20;;
40252;SDS011;25972;51.854;4.534;2022-09-30T14:49:04;17.50;;;16.30;;
40252;SDS011;25972;51.854;4.534;2022-09-30T14:51:34;17.23;;;16.02;;
40252;SDS011;25972;51.854;4.534;2022-09-30T14:54:18;17.38;;;16.17;;
40252;SDS011;25972;51.854;4.534;2022-09-30T14:56:46;18.10;;;16.58;;
40252;SDS011;25972;51.854;4.534;2022-09-30T14:59:17;17.92;;;16.63;;
40252;SDS011;25972;51.854;4.534;2022-09-30T15:01:47;18.10;;;16.63;;
40252;SDS011;25972;51.854;4.534;2022-09-30T15:04:18;17.98;;;16.60;;
40252;SDS011;25972;51.854;4.534;2022-09-30T15:06:50;18.15;;;16.70;;
40252;SDS011;25972;51.854;4.534;2022-09-30T15:09:36;18.17;;;16.77;;
40252;SDS011;25972;51.854;4.534;2022-09-30T15:14:53;18.15;;;16.73;;
40252;SDS011;25972;51.854;4.534;2022-09-30T15:17:24;17.23;;;16.02;;
40252;SDS011;25972;51.854;4.534;2022-09-30T15:19:55;16.17;;;15.07;;
40252;SDS011;25972;51.854;4.534;2022-09-30T15:22:22;16.95;;;15.75;;
40252;SDS011;25972;51.854;4.534;2022-09-30T15:24:50;17.02;;;15.77;;
40252;SDS011;25972;51.854;4.534;2022-09-30T15:30:03;17.13;;;15.90;;
40252;SDS011;25972;51.854;4.534;2022-09-30T15:32:46;17.35;;;16.08;;
40252;SDS011;25972;51.854;4.534;2022-09-30T15:37:40;17.48;;;15.98;;
40252;SDS011;25972;51.854;4.534;2022-09-30T15:40:14;17.40;;;15.85;;
40252;SDS011;25972;51.854;4.534;2022-09-30T15:43:04;15.80;;;14.70;;
40252;SDS011;25972;51.854;4.534;2022-09-30T15:45:32;16.58;;;15.35;;
40252;SDS011;25972;51.854;4.534;2022-09-30T15:50:50;14.80;;;13.80;;
40252;SDS011;25972;51.854;4.534;2022-09-30T15:53:18;15.50;;;14.50;;
40252;SDS011;25972;51.854;4.534;2022-09-30T15:56:42;16.42;;;14.90;;
40252;SDS011;25972;51.854;4.534;2022-09-30T16:01:25;16.25;;;15.05;;
40252;SDS011;25972;51.854;4.534;2022-09-30T16:04:02;15.05;;;14.02;;
40252;SDS011;25972;51.854;4.534;2022-09-30T16:09:29;13.90;;;12.98;;
40252;SDS011;25972;51.854;4.534;2022-09-30T16:14:46;15.18;;;14.07;;
40252;SDS011;25972;51.854;4.534;2022-09-30T16:27:39;15.52;;;14.18;;
40252;SDS011;25972;51.854;4.534;2022-09-30T16:30:06;14.68;;;13.57;;
40252;SDS011;25972;51.854;4.534;2022-09-30T16:32:36;14.23;;;13.23;;
40252;SDS011;25972;51.854;4.534;2022-09-30T16:35:04;14.15;;;13.15;;
40252;SDS011;25972;51.854;4.534;2022-09-30T16:37:31;14.55;;;13.35;;
40252;SDS011;25972;51.854;4.534;2022-09-30T16:40:05;14.38;;;13.25;;
40252;SDS011;25972;51.854;4.534;2022-09-30T16:42:40;14.23;;;13.23;;
40252;SDS011;25972;51.854;4.534;2022-09-30T16:45:06;14.80;;;13.60;;
40252;SDS011;25972;51.854;4.534;2022-09-30T16:47:32;15.00;;;13.88;;
40252;SDS011;25972;51.854;4.534;2022-09-30T16:49:58;14.32;;;13.05;;
40252;SDS011;25972;51.854;4.534;2022-09-30T16:52:24;14.20;;;13.10;;
40252;SDS011;25972;51.854;4.534;2022-09-30T16:54:50;14.40;;;13.40;;
40252;SDS011;25972;51.854;4.534;2022-09-30T16:57:17;13.73;;;12.63;;
40252;SDS011;25972;51.854;4.534;2022-09-30T16:59:43;14.60;;;13.40;;
40252;SDS011;25972;51.854;4.534;2022-09-30T17:02:12;14.52;;;13.38;;
40252;SDS011;25972;51.854;4.534;2022-09-30T17:04:38;14.13;;;13.02;;
40252;SDS011;25972;51.854;4.534;2022-09-30T17:07:04;14.32;;;13.30;;
40252;SDS011;25972;51.854;4.534;2022-09-30T17:09:30;14.10;;;13.00;;
40252;SDS011;25972;51.854;4.534;2022-09-30T17:11:56;14.43;;;13.43;;
40252;SDS011;25972;51.854;4.534;2022-09-30T17:14:22;14.45;;;13.35;;
40252;SDS011;25972;51.854;4.534;2022-09-30T17:16:49;14.23;;;13.23;;
40252;SDS011;25972;51.854;4.534;2022-09-30T17:19:16;14.70;;;13.30;;
40252;SDS011;25972;51.854;4.534;2022-09-30T17:21:42;14.00;;;12.93;;
40252;SDS011;25972;51.854;4.534;2022-09-30T17:24:07;14.20;;;13.10;;
40252;SDS011;25972;51.854;4.534;2022-09-30T17:26:34;13.32;;;12.38;;
40252;SDS011;25972;51.854;4.534;2022-09-30T17:29:00;14.23;;;13.23;;
40252;SDS011;25972;51.854;4.534;2022-09-30T17:31:27;13.88;;;12.88;;
40252;SDS011;25972;51.854;4.534;2022-09-30T17:33:53;14.95;;;13.55;;
40252;SDS011;25972;51.854;4.534;2022-09-30T17:36:19;14.50;;;13.48;;
40252;SDS011;25972;51.854;4.534;2022-09-30T17:38:45;14.68;;;13.48;;
40252;SDS011;25972;51.854;4.534;2022-09-30T17:41:11;14.23;;;13.13;;
40252;SDS011;25972;51.854;4.534;2022-09-30T17:43:56;13.85;;;12.85;;
40252;SDS011;25972;51.854;4.534;2022-09-30T17:46:25;13.98;;;12.88;;
40252;SDS011;25972;51.854;4.534;2022-09-30T17:48:53;14.18;;;13.05;;
40252;SDS011;25972;51.854;4.534;2022-09-30T17:51:20;14.07;;;13.05;;
40252;SDS011;25972;51.854;4.534;2022-09-30T17:53:47;13.30;;;12.27;;
40252;SDS011;25972;51.854;4.534;2022-09-30T17:56:14;13.63;;;12.63;;
40252;SDS011;25972;51.854;4.534;2022-09-30T17:58:43;15.00;;;13.20;;
40252;SDS011;25972;51.854;4.534;2022-09-30T18:01:11;14.45;;;13.35;;
40252;SDS011;25972;51.854;4.534;2022-09-30T18:03:38;14.40;;;13.30;;
40252;SDS011;25972;51.854;4.534;2022-09-30T18:06:04;13.90;;;12.75;;
40252;SDS011;25972;51.854;4.534;2022-09-30T18:08:30;13.95;;;12.85;;
40252;SDS011;25972;51.854;4.534;2022-09-30T18:10:56;14.00;;;12.88;;
40252;SDS011;25972;51.854;4.534;2022-09-30T18:13:22;14.50;;;13.40;;
40252;SDS011;25972;51.854;4.534;2022-09-30T18:15:48;14.57;;;13.48;;
40252;SDS011;25972;51.854;4.534;2022-09-30T18:18:14;15.18;;;13.80;;
40252;SDS011;25972;51.854;4.534;2022-09-30T18:20:41;13.55;;;12.55;;
40252;SDS011;25972;51.854;4.534;2022-09-30T18:23:12;15.38;;;14.20;;
40252;SDS011;25972;51.854;4.534;2022-09-30T18:25:38;14.07;;;12.98;;
40252;SDS011;25972;51.854;4.534;2022-09-30T18:28:08;14.15;;;13.02;;